createdAt,value
2018-12-06T00:00:49.668Z,95597.00
2018-12-06T00:03:18.769Z,95580.00
2018-12-06T00:05:47.984Z,95570.00
2018-12-06T00:08:19.373Z,95565.00
2018-12-06T00:10:48.519Z,95561.00
2018-12-06T00:13:19.050Z,95540.00
2018-12-06T00:15:48.168Z,95572.00
2018-12-06T00:20:57.152Z,95572.00
2018-12-06T00:23:26.366Z,95551.00
2018-12-06T00:28:34.792Z,95551.00
2018-12-06T00:31:03.882Z,95573.00
2018-12-06T00:33:32.986Z,95587.00
2018-12-06T00:38:41.221Z,95550.00
2018-12-06T00:41:10.403Z,95560.00
2018-12-06T00:43:39.468Z,95558.00
2018-12-06T00:46:08.547Z,95590.00
2018-12-06T00:48:37.681Z,95594.00
2018-12-06T00:51:06.805Z,95594.00
2018-12-06T00:56:14.709Z,95603.00
2018-12-06T00:58:44.299Z,95597.00
2018-12-06T01:01:14.269Z,95600.00
2018-12-06T01:03:45.402Z,95600.00
2018-12-06T01:06:14.570Z,95617.00
2018-12-06T01:08:44.300Z,95640.00
2018-12-06T01:11:14.493Z,95631.00
2018-12-06T01:13:46.504Z,95644.00
2018-12-06T01:16:15.709Z,95660.00
2018-12-06T01:18:44.921Z,95648.00
2018-12-06T01:21:14.516Z,95653.00
2018-12-06T01:23:44.416Z,95651.00
2018-12-06T01:26:14.716Z,95648.00
2018-12-06T01:28:46.934Z,95633.00
2018-12-06T01:31:16.066Z,95628.00
2018-12-06T01:33:45.224Z,95635.00
2018-12-06T01:36:14.569Z,95626.00
2018-12-06T01:38:44.716Z,95626.00
2018-12-06T01:41:15.345Z,95624.00
2018-12-06T01:43:44.662Z,95618.00
2018-12-06T01:46:14.648Z,95616.00
2018-12-06T01:51:23.172Z,95636.00
2018-12-06T01:56:31.124Z,95645.00
2018-12-06T01:59:00.196Z,95639.00
2018-12-06T02:04:07.861Z,95663.00
2018-12-06T02:06:37.724Z,95670.00
2018-12-06T02:11:49.157Z,95662.00
2018-12-06T02:14:18.312Z,95661.00
2018-12-06T02:16:47.371Z,95648.00
2018-12-06T02:19:17.792Z,95649.00
2018-12-06T02:21:46.944Z,95661.00
2018-12-06T02:24:16.083Z,95653.00
2018-12-06T02:26:45.208Z,95639.00
2018-12-06T02:29:15.196Z,95647.00
2018-12-06T02:31:46.157Z,95627.00
2018-12-06T02:34:15.269Z,95617.00
2018-12-06T02:36:45.127Z,95640.00
2018-12-06T02:39:15.332Z,95635.00
2018-12-06T02:41:45.377Z,95633.00
2018-12-06T02:44:15.437Z,95634.00
2018-12-06T02:46:45.463Z,95638.00
2018-12-06T02:51:53.629Z,95636.00
2018-12-06T02:54:22.826Z,95629.00
2018-12-06T02:59:31.112Z,95622.00
2018-12-06T03:02:00.249Z,95625.00
2018-12-06T03:04:29.340Z,95608.00
2018-12-06T03:06:58.512Z,95605.00
2018-12-06T03:12:06.950Z,95591.00
2018-12-06T03:14:36.195Z,95578.00
2018-12-06T03:17:05.719Z,95572.00
2018-12-06T03:19:34.872Z,95560.00
2018-12-06T03:22:04.073Z,95553.00
2018-12-06T03:24:33.275Z,95567.00
2018-12-06T03:27:02.488Z,95571.00
2018-12-06T03:29:31.621Z,95563.00
2018-12-06T03:32:00.875Z,95557.00
2018-12-06T03:34:30.057Z,95558.00
2018-12-06T03:36:59.185Z,95563.00
2018-12-06T03:39:28.211Z,95570.00
2018-12-06T03:41:57.508Z,95554.00
2018-12-06T03:44:26.748Z,95576.00
2018-12-06T03:49:40.001Z,95563.00
2018-12-06T03:54:47.836Z,95564.00
2018-12-06T03:57:17.918Z,95575.00
2018-12-06T03:59:47.068Z,95575.00
2018-12-06T04:02:16.305Z,95573.00
2018-12-06T04:04:46.261Z,95560.00
2018-12-06T04:09:55.598Z,95554.00
2018-12-06T04:12:24.809Z,95552.00
2018-12-06T04:14:53.912Z,95554.00
2018-12-06T04:17:23.105Z,95546.00
2018-12-06T04:19:52.211Z,95544.00
2018-12-06T04:25:00.491Z,95532.00
2018-12-06T04:30:08.419Z,95537.00
2018-12-06T04:35:16.954Z,95537.00
2018-12-06T04:37:46.866Z,95529.00
2018-12-06T04:40:17.769Z,95525.00
2018-12-06T04:42:46.891Z,95525.00
2018-12-06T04:45:16.881Z,95528.00
2018-12-06T04:47:46.862Z,95512.00
2018-12-06T04:52:56.986Z,95517.00
2018-12-06T04:55:26.185Z,95510.00
2018-12-06T04:57:55.366Z,95522.00
2018-12-06T05:00:24.469Z,95523.00
2018-12-06T05:02:53.604Z,95526.00
2018-12-06T05:05:22.909Z,95530.00
2018-12-06T05:07:52.023Z,95531.00
2018-12-06T05:10:21.178Z,95533.00
2018-12-06T05:12:50.353Z,95524.00
2018-12-06T05:15:19.603Z,95526.00
2018-12-06T05:17:48.737Z,95533.00
2018-12-06T05:20:18.969Z,95541.00
2018-12-06T05:22:48.116Z,95538.00
2018-12-06T05:25:17.260Z,95545.00
2018-12-06T05:27:47.276Z,95548.00
2018-12-06T05:30:17.377Z,95556.00
2018-12-06T05:32:47.409Z,95565.00
2018-12-06T05:35:17.490Z,95560.00
2018-12-06T05:37:47.482Z,95567.00
2018-12-06T05:40:17.446Z,95574.00
2018-12-06T05:42:47.516Z,95563.00
2018-12-06T05:45:17.586Z,95585.00
2018-12-06T05:50:26.208Z,95563.00
2018-12-06T05:52:55.432Z,95568.00
2018-12-06T05:55:24.516Z,95572.00
2018-12-06T05:57:53.801Z,95555.00
2018-12-06T06:00:23.013Z,95559.00
2018-12-06T06:02:52.197Z,95561.00
2018-12-06T06:05:21.462Z,95556.00
2018-12-06T06:07:50.540Z,95564.00
2018-12-06T06:10:19.728Z,95564.00
2018-12-06T06:12:48.962Z,95576.00
2018-12-06T06:15:19.209Z,95573.00
2018-12-06T06:17:48.351Z,95575.00
2018-12-06T06:23:00.033Z,95586.00
2018-12-06T06:25:29.134Z,95586.00
2018-12-06T06:27:58.269Z,95583.00
2018-12-06T06:30:27.469Z,95593.00
2018-12-06T06:32:57.703Z,95592.00
2018-12-06T06:35:26.756Z,95582.00
2018-12-06T06:37:55.880Z,95596.00
2018-12-06T06:40:24.989Z,95600.00
2018-12-06T06:42:54.124Z,95601.00
2018-12-06T06:48:02.097Z,95615.00
2018-12-06T06:50:31.217Z,95626.00
2018-12-06T06:53:00.355Z,95626.00
2018-12-06T06:58:08.565Z,95630.00
2018-12-06T07:00:37.681Z,95637.00
2018-12-06T07:03:07.020Z,95637.00
2018-12-06T07:05:36.152Z,95635.00
2018-12-06T07:10:44.473Z,95627.00
2018-12-06T07:13:13.600Z,95628.00
2018-12-06T07:15:42.703Z,95635.00
2018-12-06T07:18:11.841Z,95630.00
2018-12-06T07:20:41.039Z,95638.00
2018-12-06T07:23:10.233Z,95633.00
2018-12-06T07:25:46.084Z,95632.00
2018-12-06T07:30:52.149Z,95631.00
2018-12-06T07:33:21.389Z,95636.00
2018-12-06T07:35:51.391Z,95628.00
2018-12-06T07:38:20.456Z,95630.00
2018-12-06T07:40:50.691Z,95621.00
2018-12-06T07:43:19.998Z,95611.00
2018-12-06T07:45:49.299Z,95625.00
2018-12-06T07:50:57.516Z,95634.00
2018-12-06T07:56:06.021Z,95621.00
2018-12-06T07:58:36.242Z,95610.00
2018-12-06T08:01:05.450Z,95603.00
2018-12-06T08:03:34.619Z,95606.00
2018-12-06T08:06:03.792Z,95617.00
2018-12-06T08:08:33.068Z,95610.00
2018-12-06T08:11:02.209Z,95623.00
2018-12-06T08:13:31.401Z,95618.00
2018-12-06T08:16:00.509Z,95635.00
2018-12-06T08:18:29.631Z,95628.00
2018-12-06T08:23:37.976Z,95627.00
2018-12-06T08:26:07.182Z,95649.00
2018-12-06T08:28:36.367Z,95643.00
2018-12-06T08:31:05.473Z,95646.00
2018-12-06T08:33:34.693Z,95653.00
2018-12-06T08:36:03.888Z,95652.00
2018-12-06T08:38:33.921Z,95652.00
2018-12-06T08:41:03.047Z,95651.00
2018-12-06T08:43:32.199Z,95657.00
2018-12-06T08:46:01.340Z,95661.00
2018-12-06T08:51:08.802Z,95674.00
2018-12-06T08:56:17.158Z,95681.00
2018-12-06T08:58:46.340Z,95681.00
2018-12-06T09:01:15.604Z,95682.00
2018-12-06T09:03:44.844Z,95690.00
2018-12-06T09:06:13.981Z,95701.00
2018-12-06T09:11:22.276Z,95693.00
2018-12-06T09:13:51.456Z,95691.00
2018-12-06T09:16:20.589Z,95705.00
2018-12-06T09:18:50.091Z,95720.00
2018-12-06T09:21:20.108Z,95721.00
2018-12-06T09:23:50.137Z,95721.00
2018-12-06T09:26:20.232Z,95715.00
2018-12-06T09:28:50.249Z,95717.00
2018-12-06T09:31:20.273Z,95729.00
2018-12-06T09:34:03.874Z,95727.00
2018-12-06T09:36:33.117Z,95720.00
2018-12-06T09:39:02.560Z,95729.00
2018-12-06T09:41:31.745Z,95732.00
2018-12-06T09:44:00.992Z,95743.00
2018-12-06T09:46:33.720Z,95742.00
2018-12-06T09:49:04.601Z,95741.00
2018-12-06T09:54:11.868Z,95735.00
2018-12-06T09:56:41.040Z,95722.00
2018-12-06T09:59:10.341Z,95735.00
2018-12-06T10:01:39.518Z,95733.00
2018-12-06T10:04:09.025Z,95730.00
2018-12-06T10:06:38.256Z,95726.00
2018-12-06T10:09:08.029Z,95728.00
2018-12-06T10:11:37.214Z,95731.00
2018-12-06T10:14:06.241Z,95732.00
2018-12-06T10:16:35.468Z,95714.00
2018-12-06T10:19:04.708Z,95727.00
2018-12-06T10:21:33.808Z,95729.00
2018-12-06T10:24:02.926Z,95718.00
2018-12-06T10:26:32.352Z,95726.00
2018-12-06T10:29:01.574Z,95724.00
2018-12-06T10:31:30.637Z,95719.00
2018-12-06T10:33:59.813Z,95721.00
2018-12-06T10:36:29.176Z,95726.00
2018-12-06T10:38:58.370Z,95726.00
2018-12-06T10:41:27.851Z,95739.00
2018-12-06T10:43:57.043Z,95723.00
2018-12-06T10:46:26.529Z,95734.00
2018-12-06T10:51:43.126Z,95739.00
2018-12-06T10:56:51.600Z,95741.00
2018-12-06T10:59:21.249Z,95744.00
2018-12-06T11:01:56.457Z,95741.00
2018-12-06T11:07:08.888Z,95751.00
2018-12-06T11:09:37.963Z,95747.00
2018-12-06T11:12:07.396Z,95751.00
2018-12-06T11:14:36.571Z,95748.00
2018-12-06T11:17:05.887Z,95748.00
2018-12-06T11:19:35.167Z,95762.00
2018-12-06T11:22:05.548Z,95751.00
2018-12-06T11:24:34.665Z,95750.00
2018-12-06T11:27:03.991Z,95750.00
2018-12-06T11:29:33.059Z,95766.00
2018-12-06T11:32:02.143Z,95766.00
2018-12-06T11:34:31.303Z,95765.00
2018-12-06T11:37:00.509Z,95770.00
2018-12-06T11:39:29.635Z,95775.00
2018-12-06T11:41:58.700Z,95778.00
2018-12-06T11:44:27.792Z,95775.00
2018-12-06T11:46:56.949Z,95769.00
2018-12-06T11:52:04.265Z,95770.00
2018-12-06T11:54:33.373Z,95763.00
2018-12-06T11:57:02.519Z,95769.00
2018-12-06T11:59:31.622Z,95757.00
2018-12-06T12:02:00.801Z,95758.00
2018-12-06T12:07:09.169Z,95750.00
2018-12-06T12:09:38.405Z,95752.00
2018-12-06T12:12:07.602Z,95739.00
2018-12-06T12:14:36.736Z,95737.00
2018-12-06T12:17:05.816Z,95731.00
2018-12-06T12:19:34.936Z,95730.00
2018-12-06T12:22:04.170Z,95723.00
2018-12-06T12:24:33.304Z,95729.00
2018-12-06T12:27:02.424Z,95728.00
2018-12-06T12:29:31.588Z,95718.00
2018-12-06T12:32:00.760Z,95718.00
2018-12-06T12:34:29.822Z,95720.00
2018-12-06T12:36:59.046Z,95721.00
2018-12-06T12:39:28.244Z,95719.00
2018-12-06T12:41:57.397Z,95716.00
2018-12-06T12:44:26.615Z,95718.00
2018-12-06T12:49:35.084Z,95721.00
2018-12-06T12:52:04.489Z,95714.00
2018-12-06T12:54:33.594Z,95721.00
2018-12-06T12:57:02.825Z,95709.00
2018-12-06T12:59:31.915Z,95722.00
2018-12-06T13:02:01.178Z,95721.00
2018-12-06T13:04:30.460Z,95720.00
2018-12-06T13:07:12.574Z,95726.00
2018-12-06T13:09:41.963Z,95728.00
2018-12-06T13:12:11.352Z,95719.00
2018-12-06T13:14:40.626Z,95717.00
2018-12-06T13:17:09.913Z,95716.00
2018-12-06T13:19:39.160Z,95719.00
2018-12-06T13:22:08.402Z,95707.00
2018-12-06T13:24:37.684Z,95700.00
2018-12-06T13:27:07.039Z,95708.00
2018-12-06T13:29:36.241Z,95709.00
2018-12-06T13:32:05.801Z,95699.00
2018-12-06T13:34:35.393Z,95701.00
2018-12-06T13:37:04.547Z,95703.00
2018-12-06T13:39:33.893Z,95715.00
2018-12-06T13:42:03.091Z,95707.00
2018-12-06T13:44:32.225Z,95721.00
2018-12-06T13:49:41.953Z,95716.00
2018-12-06T13:54:50.605Z,95736.00
2018-12-06T13:57:19.903Z,95737.00
2018-12-06T13:59:49.207Z,95744.00
2018-12-06T14:02:18.338Z,95757.00
2018-12-06T14:04:47.482Z,95756.00
2018-12-06T14:07:17.725Z,95750.00
2018-12-06T14:09:46.868Z,95759.00
2018-12-06T14:12:16.038Z,95759.00
2018-12-06T14:14:45.263Z,95776.00
2018-12-06T14:19:54.500Z,95771.00
2018-12-06T14:22:23.580Z,95768.00
2018-12-06T14:24:53.590Z,95772.00
2018-12-06T14:27:23.644Z,95784.00
2018-12-06T14:29:53.684Z,95772.00
2018-12-06T14:32:23.676Z,95789.00
2018-12-06T14:34:53.672Z,95781.00
2018-12-06T14:37:23.809Z,95797.00
2018-12-06T14:39:53.741Z,95799.00
2018-12-06T14:42:23.844Z,95795.00
2018-12-06T14:44:53.973Z,95812.00
2018-12-06T14:47:23.889Z,95803.00
2018-12-06T14:49:54.031Z,95803.00
2018-12-06T14:52:23.944Z,95809.00
2018-12-06T14:54:53.903Z,95804.00
2018-12-06T15:00:03.560Z,95793.00
2018-12-06T15:02:32.708Z,95798.00
2018-12-06T15:05:01.844Z,95800.00
2018-12-06T15:07:30.982Z,95807.00
2018-12-06T15:10:00.160Z,95794.00
2018-12-06T15:12:29.352Z,95792.00
2018-12-06T15:14:58.410Z,95800.00
2018-12-06T15:17:27.492Z,95804.00
2018-12-06T15:19:56.688Z,95810.00
2018-12-06T15:22:25.859Z,95813.00
2018-12-06T15:24:55.496Z,95804.00
2018-12-06T15:27:24.733Z,95807.00
2018-12-06T15:29:54.844Z,95824.00
2018-12-06T15:32:24.398Z,95808.00
2018-12-06T15:34:54.632Z,95824.00
2018-12-06T15:37:24.780Z,95830.00
2018-12-06T15:39:55.062Z,95830.00
2018-12-06T15:42:25.036Z,95833.00
2018-12-06T15:44:55.007Z,95838.00
2018-12-06T15:47:25.132Z,95829.00
2018-12-06T15:49:55.304Z,95824.00
2018-12-06T15:55:03.896Z,95833.00
2018-12-06T15:57:33.057Z,95823.00
2018-12-06T16:00:02.256Z,95831.00
2018-12-06T16:05:10.866Z,95831.00
2018-12-06T16:07:40.464Z,95843.00
2018-12-06T16:10:11.072Z,95843.00
2018-12-06T16:12:40.226Z,95841.00
2018-12-06T16:15:09.885Z,95827.00
2018-12-06T16:17:38.944Z,95839.00
2018-12-06T16:22:49.759Z,95832.00
2018-12-06T16:27:58.044Z,95823.00
2018-12-06T16:30:27.264Z,95825.00
2018-12-06T16:32:56.312Z,95806.00
2018-12-06T16:35:25.737Z,95813.00
2018-12-06T16:37:55.867Z,95805.00
2018-12-06T16:40:25.824Z,95808.00
2018-12-06T16:42:55.601Z,95800.00
2018-12-06T16:45:25.713Z,95813.00
2018-12-06T16:50:38.236Z,95810.00
2018-12-06T16:53:07.448Z,95821.00
2018-12-06T16:55:36.557Z,95825.00
2018-12-06T16:58:05.758Z,95818.00
2018-12-06T17:00:34.975Z,95820.00
2018-12-06T17:03:04.244Z,95824.00
2018-12-06T17:05:33.412Z,95834.00
2018-12-06T17:08:02.524Z,95837.00
2018-12-06T17:10:31.591Z,95844.00
2018-12-06T17:13:00.701Z,95853.00
2018-12-06T17:15:29.876Z,95845.00
2018-12-06T17:17:59.001Z,95855.00
2018-12-06T17:20:28.208Z,95849.00
2018-12-06T17:22:57.334Z,95856.00
2018-12-06T17:25:26.475Z,95860.00
2018-12-06T17:27:55.598Z,95862.00
2018-12-06T17:30:24.860Z,95859.00
2018-12-06T17:32:54.036Z,95854.00
2018-12-06T17:35:23.176Z,95853.00
2018-12-06T17:37:52.442Z,95857.00
2018-12-06T17:40:23.306Z,95854.00
2018-12-06T17:42:52.493Z,95857.00
2018-12-06T17:45:21.648Z,95853.00
2018-12-06T17:47:50.748Z,95854.00
2018-12-06T17:52:58.437Z,95869.00
2018-12-06T17:55:27.571Z,95876.00
2018-12-06T17:57:56.773Z,95880.00
2018-12-06T18:00:26.026Z,95884.00
2018-12-06T18:02:55.163Z,95868.00
2018-12-06T18:05:25.535Z,95878.00
2018-12-06T18:07:54.717Z,95879.00
2018-12-06T18:10:24.247Z,95882.00
2018-12-06T18:12:53.589Z,95877.00
2018-12-06T18:15:22.996Z,95896.00
2018-12-06T18:17:52.129Z,95887.00
2018-12-06T18:20:21.324Z,95885.00
2018-12-06T18:22:50.460Z,95887.00
2018-12-06T18:25:19.516Z,95895.00
2018-12-06T18:27:48.717Z,95886.00
2018-12-06T18:30:18.058Z,95896.00
2018-12-06T18:32:47.149Z,95905.00
2018-12-06T18:35:16.313Z,95909.00
2018-12-06T18:37:47.355Z,95898.00
2018-12-06T18:40:16.388Z,95901.00
2018-12-06T18:42:45.531Z,95887.00
2018-12-06T18:45:14.888Z,95896.00
2018-12-06T18:47:44.045Z,95901.00
2018-12-06T18:50:13.155Z,95886.00
2018-12-06T18:52:42.416Z,95890.00
2018-12-06T18:55:11.532Z,95879.00
2018-12-06T19:00:19.139Z,95876.00
2018-12-06T19:02:48.365Z,95876.00
2018-12-06T19:05:18.173Z,95871.00
2018-12-06T19:07:47.428Z,95866.00
2018-12-06T19:10:17.630Z,95881.00
2018-12-06T19:12:46.812Z,95877.00
2018-12-06T19:15:16.194Z,95870.00
2018-12-06T19:17:45.327Z,95870.00
2018-12-06T19:22:53.197Z,95891.00
2018-12-06T19:25:22.457Z,95889.00
2018-12-06T19:27:51.658Z,95890.00
2018-12-06T19:30:21.025Z,95889.00
2018-12-06T19:32:57.697Z,95892.00
2018-12-06T19:35:21.467Z,95887.00
2018-12-06T19:37:50.873Z,95888.00
2018-12-06T19:40:20.080Z,95890.00
2018-12-06T19:45:27.842Z,95878.00
2018-12-06T19:50:35.112Z,95879.00
2018-12-06T19:53:04.485Z,95883.00
2018-12-06T19:55:33.637Z,95885.00
2018-12-06T19:58:02.812Z,95889.00
2018-12-06T20:00:32.052Z,95883.00
2018-12-06T20:03:01.315Z,95871.00
2018-12-06T20:05:30.533Z,95882.00
2018-12-06T20:07:59.750Z,95883.00
2018-12-06T20:10:28.869Z,95883.00
2018-12-06T20:12:58.063Z,95867.00
2018-12-06T20:15:27.237Z,95880.00
2018-12-06T20:17:57.634Z,95868.00
2018-12-06T20:20:26.947Z,95871.00
2018-12-06T20:22:56.112Z,95873.00
2018-12-06T20:25:25.233Z,95865.00
2018-12-06T20:27:54.456Z,95865.00
2018-12-06T20:30:23.676Z,95859.00
2018-12-06T20:32:52.971Z,95863.00
2018-12-06T20:35:22.101Z,95853.00
2018-12-06T20:40:30.554Z,95860.00
2018-12-06T20:42:59.891Z,95844.00
2018-12-06T20:45:29.174Z,95861.00
2018-12-06T20:47:58.254Z,95849.00
2018-12-06T20:53:05.596Z,95859.00
2018-12-06T20:55:34.678Z,95846.00
2018-12-06T20:58:03.961Z,95860.00
2018-12-06T21:00:33.059Z,95852.00
2018-12-06T21:03:04.078Z,95859.00
2018-12-06T21:05:33.244Z,95848.00
2018-12-06T21:08:02.408Z,95833.00
2018-12-06T21:10:32.964Z,95837.00
2018-12-06T21:13:02.101Z,95835.00
2018-12-06T21:15:31.332Z,95833.00
2018-12-06T21:18:00.593Z,95831.00
2018-12-06T21:20:29.837Z,95835.00
2018-12-06T21:22:59.072Z,95847.00
2018-12-06T21:25:28.286Z,95842.00
2018-12-06T21:27:57.432Z,95845.00
2018-12-06T21:30:26.656Z,95834.00
2018-12-06T21:32:55.728Z,95829.00
2018-12-06T21:35:24.914Z,95830.00
2018-12-06T21:37:53.972Z,95836.00
2018-12-06T21:40:23.209Z,95828.00
2018-12-06T21:42:52.365Z,95825.00
2018-12-06T21:45:21.510Z,95829.00
2018-12-06T21:47:50.639Z,95823.00
2018-12-06T21:52:58.908Z,95819.00
2018-12-06T21:55:28.121Z,95824.00
2018-12-06T21:57:57.153Z,95827.00
2018-12-06T22:00:26.368Z,95818.00
2018-12-06T22:05:36.133Z,95822.00
2018-12-06T22:08:05.300Z,95823.00
2018-12-06T22:10:34.610Z,95829.00
2018-12-06T22:13:03.856Z,95816.00
2018-12-06T22:15:33.109Z,95828.00
2018-12-06T22:18:02.236Z,95820.00
2018-12-06T22:20:31.515Z,95826.00
2018-12-06T22:23:01.132Z,95825.00
2018-12-06T22:25:30.475Z,95822.00
2018-12-06T22:27:59.660Z,95816.00
2018-12-06T22:30:29.804Z,95822.00
2018-12-06T22:32:59.025Z,95826.00
2018-12-06T22:35:28.185Z,95824.00
2018-12-06T22:37:57.342Z,95826.00
2018-12-06T22:40:26.440Z,95825.00
2018-12-06T22:42:57.427Z,95824.00
2018-12-06T22:46:00.224Z,95811.00
2018-12-06T22:51:08.563Z,95817.00
2018-12-06T22:53:37.681Z,95809.00
2018-12-06T22:56:07.011Z,95819.00
2018-12-06T22:58:36.116Z,95814.00
2018-12-06T23:01:08.672Z,95814.00
2018-12-06T23:03:37.883Z,95807.00
2018-12-06T23:06:07.298Z,95810.00
2018-12-06T23:11:16.674Z,95810.00
2018-12-06T23:13:45.815Z,95813.00
2018-12-06T23:16:15.156Z,95802.00
2018-12-06T23:18:44.263Z,95809.00
2018-12-06T23:21:13.428Z,95803.00
2018-12-06T23:23:43.584Z,95814.00
2018-12-06T23:26:13.387Z,95804.00
2018-12-06T23:28:43.477Z,95808.00
2018-12-06T23:31:13.401Z,95807.00
2018-12-06T23:33:43.551Z,95812.00
2018-12-06T23:36:15.314Z,95802.00
2018-12-06T23:38:44.588Z,95800.00
2018-12-06T23:41:14.800Z,95800.00
2018-12-06T23:43:43.936Z,95795.00
2018-12-06T23:46:13.791Z,95793.00
2018-12-06T23:51:35.396Z,95784.00
2018-12-06T23:54:04.774Z,95782.00
2018-12-06T23:56:34.105Z,95773.00
2018-12-06T23:59:04.591Z,95769.00
